Photo de Laille
https://tgftp.nws.noaa.gov/data/observations/metar/stations/LFRN.TXT2021/01/28 16:00 LFRN 281600Z AUTO 22010KT 9999 BKN013 OVC020 13/12 Q1010 TEMPO 3000 RA BKN009 OVC013
Rennes
couvert
Metar : 2021/01/28 16:00 LFRN 281600Z AUTO 22010KT 9999 BKN013 OVC020 13/12 Q1010 TEMPO 3000 RA BKN009 OVC013
Couverture nuageuse : Mostly Cloudy 1300 ft Overcast 2000 ft
Pression de 29.83 inHg (1010 hPa)
Humidité : 94%
Température : 55°F (13°C)
Vent de SW at 12 mph (19 km/h)
Visibilité : 6 miles (10 km)
Nantes
Légère bruine, Brume, couvert
Metar : 2021/01/28 16:00 LFRS 281600Z AUTO 24012KT 3500 -DZ BR OVC004 12/12 Q1012 TEMPO 24017G27KT 2500 -RA
Couverture nuageuse : Overcast 400 ft
Traduc : Partly cloudy 700 ft
Pression de 29.88 inHg (1012 hPa)
Humidité : 100%
Température : 54°F (12°C)
Point de rosée : 54°F (12°C)
Vent de WSW at 14 mph (22 km/h)
Visibilité : 2 miles (4 km)
Lannion
pluie légère, Bruine, Brume, couvert
Metar : 2021/01/28 16:00 LFRO 281600Z AUTO 23015KT 3800 -RADZ BR BKN006 OVC010 12/12 Q1009
Couverture nuageuse : Mostly Cloudy 600 ft Overcast 1000 ft
Traduc : Partly cloudy 700 ft
Pression de 29.8 inHg (1009 hPa)
Humidité : 100%
Température : 54°F (12°C)
Point de rosée : 54°F (12°C)
Vent de SW at 17 mph (28 km/h)
Visibilité : 2 miles (4 km)
Dinard
nuageux
Metar : 2021/01/28 16:00 LFRD 281600Z AUTO 22010KT 9999 SCT023 BKN029 BKN036 14/11 Q1008 TEMPO 3000 RA BKN009 OVC013
Couverture nuageuse : Partly Cloudy 2300 ft Mostly Cloudy 2900 ft Mostly Cloudy 3600 ft
Traduc : Partly cloudy 700 ft
Pression de 29.77 inHg (1008 hPa)
Humidité : 82%
Température : 57°F (14°C)
Point de rosée : 52°F (11°C)
Vent de SW at 12 mph (19 km/h)
Visibilité : 6 miles (10 km)
Brest
Légère bruine, couvert
Metar : 2021/01/28 16:00 LFRB 281600Z AUTO 22020KT 9999 -DZ OVC003 12/12 Q1008 TEMPO 23015G25KT 0700 FG VV///
Couverture nuageuse : Overcast 300 ft
Traduc : Partly cloudy 700 ft
Pression de 29.77 inHg (1008 hPa)
Humidité : 100%
Température : 54°F (12°C)
Point de rosée : 54°F (12°C)
Vent de SW at 23 mph (37 km/h)
Visibilité : 6 miles (10 km)
Quimper
couvert
Metar : 2021/01/28 16:00 LFRQ 281600Z AUTO 25015KT 9999 BKN004 OVC008 12/12 Q1009 TEMPO 2000 RA
Couverture nuageuse : Mostly Cloudy 400 ft Overcast 800 ft
Traduc : Partly cloudy 700 ft
Pression de 29.8 inHg (1009 hPa)
Humidité : 100%
Température : 54°F (12°C)
Point de rosée : 54°F (12°C)
Vent de WSW at 17 mph (28 km/h)
Visibilité : 6 miles (10 km)
St Nazaire
Légère bruine, Brume, couvert
Metar : 2021/01/28 16:00 LFRZ 281600Z AUTO 23015KT 2900 -DZ BR OVC003 12/12 Q1012 TEMPO 25018G30KT RA
Couverture nuageuse : Overcast 300 ft
Traduc : Partly cloudy 700 ft
Pression de 29.88 inHg (1012 hPa)
Humidité : 100%
Température : 54°F (12°C)
Point de rosée : 54°F (12°C)
Vent de SW at 17 mph (28 km/h)
Visibilité : 2 miles (3 km)
St Brieuc
couvert
Metar : 2021/01/28 16:00 LFRT 281600Z AUTO 22008KT 9999 OVC013 13/11 Q1008
Couverture nuageuse : Overcast 1300 ft
Traduc : Partly cloudy 700 ft
Pression de 29.77 inHg (1008 hPa)
Humidité : 88%
Température : 55°F (13°C)
Point de rosée : 52°F (11°C)
Vent de SW at 9 mph (15 km/h)
Visibilité : 6 miles (10 km)
Lorient

Metar : 2021/01/28 16:00 LFRH 281600Z AUTO 23017KT 1400 1300 R25/P2000 R07/1700D -DZ BR VV/// 12/12 Q1010 BECMG 25015G25KT
Couverture nuageuse :
Traduc : Partly cloudy 700 ft
Pression de
Humidité :
Température :
Point de rosée :
Vent de SW at 20 mph (31 km/h)
Visibilité : 1 mile (1 km)
Vannes-Meucon

Metar : 2021/01/28 16:00 LFRV 281600Z AUTO 25010KT 200V290 1300 1100 -DZ BCFG VV/// 12/12 Q1010
Couverture nuageuse :
Traduc : Partly cloudy 700 ft
Pression de
Humidité :
Température :
Point de rosée :
Vent de WSW at 12 mph (19 km/h)
Visibilité : 1 mile (1 km)

 


   Weather Underground PWS IBRETAGN39      Weather Underground PWS IBRETAGN39Retour Météo-Laillé adhérent de Météo-Bretagne et d'Infoclimat. Données mises à jour en temps réel via Météolink Climatologie réalisée sous Wswin et GraphWeather.

Affichage prévisions météo de WeatherUnderground via script PHP de Saratoga.

Copyright 2012-2021